Time;durP1;ratioP1;P1;durP2;ratioP2;P2;SDS_P1;SDS_P2;PMS_P1;PMS_P2;Temp;Humidity;BMP_temperature;BMP_pressure;BME280_temperature;BME280_humidity;BME280_pressure;Samples;Min_cycle;Max_cycle;Signal;HPM_P1;HPM_P2
2021/06/29 09:00:34;;;;;;;4.40;2.55;;;25.20;99.90;;;;;;2902277;23;20333;-76
2021/06/29 09:03:01;;;;;;;5.20;2.20;;;26.10;99.90;;;;;;4995538;28;20565;-74
2021/06/29 09:05:30;;;;;;;5.30;2.40;;;26.10;99.90;;;;;;4996463;28;20214;-75
2021/06/29 09:08:01;;;;;;;6.97;2.42;;;25.90;99.90;;;;;;4995947;28;20719;-76
2021/06/29 09:10:29;;;;;;;7.50;3.00;;;25.60;99.90;;;;;;4991022;28;20430;-77
2021/06/29 09:12:57;;;;;;;4.72;2.20;;;25.40;99.90;;;;;;4994701;28;20214;-78
2021/06/29 09:15:41;;;;;;;8.70;2.63;;;25.50;99.90;;;;;;4991365;28;20778;-75
2021/06/29 09:18:23;;;;;;;3.58;1.95;;;25.40;99.90;;;;;;4995862;28;20281;-73
2021/06/29 09:20:53;;;;;;;4.45;2.38;;;25.60;99.90;;;;;;4995866;28;20225;-73
2021/06/29 09:23:21;;;;;;;15.85;2.60;;;25.60;99.90;;;;;;4996098;28;20202;-73
2021/06/29 09:25:51;;;;;;;5.72;2.20;;;25.50;99.90;;;;;;4995931;28;20217;-75
2021/06/29 09:28:20;;;;;;;13.85;2.80;;;25.40;99.90;;;;;;4995740;28;20233;-76
2021/06/29 09:30:51;;;;;;;5.45;2.50;;;25.90;99.90;;;;;;4995749;28;20206;-74
2021/06/29 09:33:20;;;;;;;4.53;2.60;;;26.00;99.90;;;;;;4995536;28;20202;-74
2021/06/29 09:35:50;;;;;;;6.32;2.92;;;26.20;99.90;;;;;;4995584;28;20665;-78
2021/06/29 09:38:21;;;;;;;5.55;2.85;;;26.30;99.90;;;;;;4995576;28;20237;-74
2021/06/29 09:40:54;;;;;;;5.00;2.53;;;26.30;99.90;;;;;;4995648;28;20213;-74
2021/06/29 09:43:21;;;;;;;8.07;2.95;;;26.30;99.90;;;;;;4995228;28;20261;-73
2021/06/29 09:45:52;;;;;;;4.93;2.60;;;26.40;99.90;;;;;;4995151;28;20217;-78
2021/06/29 09:48:28;;;;;;;6.18;3.47;;;26.30;99.90;;;;;;4995362;28;20230;-78
2021/06/29 09:50:59;;;;;;;4.15;2.90;;;26.20;99.90;;;;;;4995470;28;20209;-77
2021/06/29 09:53:28;;;;;;;5.70;3.63;;;25.80;99.90;;;;;;4995132;28;20261;-76
2021/06/29 09:55:57;;;;;;;6.60;3.20;;;25.90;99.90;;;;;;4994888;28;20210;-78
2021/06/29 09:58:25;;;;;;;4.95;3.10;;;26.30;99.90;;;;;;4994958;28;20227;-81
2021/06/29 10:00:56;;;;;;;7.03;3.40;;;26.10;99.90;;;;;;4995037;28;20218;-78
2021/06/29 10:03:28;;;;;;;4.97;2.75;;;26.20;99.90;;;;;;4994786;28;20202;-78
2021/06/29 10:05:56;;;;;;;4.45;2.92;;;26.50;99.90;;;;;;4994435;28;20550;-78
2021/06/29 10:08:31;;;;;;;7.05;3.25;;;26.80;99.90;;;;;;4994143;28;20245;-79
2021/06/29 10:11:15;;;;;;;6.32;3.30;;;26.80;99.90;;;;;;4994839;28;20657;-78
2021/06/29 10:13:44;;;;;;;5.60;3.28;;;26.70;99.90;;;;;;4994993;28;20206;-79
2021/06/29 10:16:14;;;;;;;6.38;3.28;;;26.50;99.90;;;;;;4995003;28;20206;-77
2021/06/29 10:18:48;;;;;;;4.97;3.20;;;26.20;99.90;;;;;;4994935;28;20227;-77
2021/06/29 10:21:21;;;;;;;6.07;3.80;;;26.00;99.90;;;;;;4994877;28;20559;-76
2021/06/29 10:23:50;;;;;;;5.45;3.08;;;25.90;99.90;;;;;;4994755;28;20221;-78
2021/06/29 10:26:17;;;;;;;6.55;3.40;;;25.80;99.90;;;;;;4994909;28;20206;-76
2021/06/29 10:28:48;;;;;;;6.45;3.65;;;25.90;99.90;;;;;;4994797;28;20237;-82
2021/06/29 10:31:19;;;;;;;7.30;3.40;;;26.10;99.90;;;;;;4994659;28;20679;-76
2021/06/29 10:33:48;;;;;;;4.72;3.08;;;26.10;99.90;;;;;;4994581;28;20218;-77
2021/06/29 10:36:15;;;;;;;5.22;3.28;;;25.90;99.90;;;;;;4994685;28;20207;-82
2021/06/29 10:38:43;;;;;;;4.82;3.03;;;25.80;99.90;;;;;;4994643;28;20230;-76
2021/06/29 10:41:10;;;;;;;4.53;2.85;;;25.80;99.90;;;;;;4994571;28;20680;-82
2021/06/29 10:43:38;;;;;;;4.90;3.08;;;25.80;99.90;;;;;;4994043;28;20261;-82
2021/06/29 10:46:05;;;;;;;5.18;3.17;;;25.60;99.90;;;;;;4994006;28;20206;-78
2021/06/29 10:48:34;;;;;;;5.55;3.45;;;25.40;99.90;;;;;;4993973;28;20723;-77
2021/06/29 10:51:03;;;;;;;6.32;3.17;;;25.30;99.90;;;;;;4992275;28;20210;-76
2021/06/29 10:53:35;;;;;;;4.85;2.83;;;25.30;99.90;;;;;;4991882;28;20214;-78
2021/06/29 10:56:03;;;;;;;5.57;3.08;;;25.50;99.90;;;;;;4991939;28;20257;-77
2021/06/29 10:58:36;;;;;;;6.53;2.90;;;25.60;99.90;;;;;;4993246;28;20238;-79
2021/06/29 11:01:25;;;;;;;6.97;3.17;;;25.80;99.90;;;;;;4993794;28;20308;-76
2021/06/29 11:03:55;;;;;;;6.95;3.25;;;25.90;99.90;;;;;;4994161;28;20230;-79
2021/06/29 11:06:33;;;;;;;6.80;3.22;;;25.80;99.90;;;;;;4994083;28;20297;-77
2021/06/29 11:09:00;;;;;;;4.78;3.05;;;25.70;99.90;;;;;;4993925;28;20237;-77
2021/06/29 11:11:27;;;;;;;4.70;3.05;;;25.80;99.90;;;;;;4993667;28;20210;-77
2021/06/29 11:13:54;;;;;;;9.40;2.85;;;26.10;99.90;;;;;;4993724;28;20657;-77
2021/06/29 11:16:52;;;;;;;5.03;2.95;;;26.50;99.90;;;;;;4993633;28;20206;-77
2021/06/29 11:19:21;;;;;;;4.88;3.35;;;27.00;99.90;;;;;;4994079;28;20214;-77
2021/06/29 11:21:49;;;;;;;4.75;2.92;;;27.10;99.90;;;;;;4993547;28;20213;-76
2021/06/29 11:24:40;;;;;;;7.55;3.28;;;26.90;99.90;;;;;;4994135;28;20301;-79
2021/06/29 11:27:07;;;;;;;5.22;3.22;;;26.80;99.90;;;;;;4993588;28;20237;-78
2021/06/29 11:29:41;;;;;;;6.38;3.13;;;26.80;99.90;;;;;;4993878;28;20669;-77
2021/06/29 11:32:29;;;;;;;6.63;3.20;;;26.80;99.90;;;;;;4993600;28;20217;-78
2021/06/29 11:35:32;;;;;;;5.55;3.40;;;26.70;99.90;;;;;;4993849;28;20234;-77
2021/06/29 11:38:07;;;;;;;4.93;3.05;;;26.40;99.90;;;;;;4992954;28;20252;-78
2021/06/29 11:40:34;;;;;;;4.78;3.13;;;26.40;99.90;;;;;;4993615;28;20206;-77
2021/06/29 11:43:13;;;;;;;5.13;2.78;;;26.40;99.90;;;;;;4993604;28;20698;-77
2021/06/29 11:45:41;;;;;;;6.07;3.55;;;26.40;99.90;;;;;;4993917;28;20210;-77
2021/06/29 11:48:42;;;;;;;5.75;3.30;;;26.30;99.90;;;;;;4993384;28;20318;-77
2021/06/29 11:51:10;;;;;;;6.18;3.33;;;26.00;99.90;;;;;;4993015;28;20207;-77
2021/06/29 11:53:39;;;;;;;4.95;2.97;;;26.00;99.90;;;;;;4993419;28;20212;-77
2021/06/29 11:56:11;;;;;;;4.75;3.17;;;26.00;99.90;;;;;;4993148;28;20237;-77
2021/06/29 11:58:46;;;;;;;4.90;3.10;;;25.90;99.90;;;;;;4993384;28;20233;-77
2021/06/29 12:01:13;;;;;;;5.22;2.90;;;26.00;99.90;;;;;;4993202;28;20217;-76
2021/06/29 12:03:39;;;;;;;4.05;2.42;;;26.00;99.90;;;;;;4993374;28;20310;-77
2021/06/29 12:06:06;;;;;;;6.88;3.00;;;26.10;99.90;;;;;;4993443;28;20211;-77
2021/06/29 12:08:35;;;;;;;4.03;2.53;;;26.20;99.90;;;;;;4987465;28;20723;-74
2021/06/29 12:11:06;;;;;;;5.00;2.38;;;26.20;99.90;;;;;;4973876;28;20264;-72
2021/06/29 12:13:37;;;;;;;5.53;2.33;;;26.20;99.90;;;;;;4981913;28;20209;-73
2021/06/29 12:16:05;;;;;;;3.10;1.90;;;26.30;99.90;;;;;;4994236;28;20341;-72
2021/06/29 12:18:36;;;;;;;3.50;2.30;;;26.50;99.90;;;;;;4993090;28;20257;-72
2021/06/29 12:21:06;;;;;;;3.28;2.22;;;26.40;99.90;;;;;;4993416;28;20293;-73
2021/06/29 12:23:37;;;;;;;5.25;2.38;;;26.60;99.90;;;;;;4993254;28;20206;-74
2021/06/29 12:26:05;;;;;;;4.97;2.90;;;26.80;99.90;;;;;;4993275;28;20206;-74
2021/06/29 12:28:34;;;;;;;4.95;2.20;;;27.10;99.90;;;;;;4995308;28;20234;-73
2021/06/29 12:31:02;;;;;;;2.70;1.80;;;27.30;99.90;;;;;;4996372;28;20747;-73
2021/06/29 12:33:32;;;;;;;3.13;2.08;;;27.20;99.90;;;;;;4996204;28;20202;-73
2021/06/29 12:36:01;;;;;;;4.15;2.35;;;27.10;99.90;;;;;;4996377;28;20238;-74
2021/06/29 12:38:31;;;;;;;4.82;2.25;;;27.20;99.90;;;;;;4996133;28;20269;-74
2021/06/29 12:41:01;;;;;;;4.70;2.53;;;27.40;99.90;;;;;;4996048;28;20673;-74
2021/06/29 12:43:35;;;;;;;5.93;2.78;;;27.30;99.90;;;;;;4996378;28;20217;-74
2021/06/29 12:46:19;;;;;;;6.05;2.60;;;27.10;99.90;;;;;;4996501;28;20572;-73
2021/06/29 12:48:56;;;;;;;3.15;1.88;;;26.80;99.90;;;;;;4976747;28;20263;-73
2021/06/29 12:51:23;;;;;;;3.80;2.40;;;26.60;99.90;;;;;;4976625;28;20576;-74
2021/06/29 12:53:54;;;;;;;7.20;3.20;;;26.50;99.90;;;;;;4977068;28;20207;-73
2021/06/29 12:56:31;;;;;;;4.57;2.60;;;26.40;99.90;;;;;;4976508;28;20238;-74
2021/06/29 12:58:58;;;;;;;6.35;3.03;;;25.90;99.90;;;;;;4996126;28;20226;-73
2021/06/29 13:01:25;;;;;;;6.57;2.85;;;25.70;99.90;;;;;;4995992;28;20692;-74
2021/06/29 13:03:53;;;;;;;5.97;3.33;;;25.60;99.90;;;;;;4995495;28;20588;-74
2021/06/29 13:06:23;;;;;;;4.80;2.90;;;25.50;99.90;;;;;;4996352;28;20297;-77
2021/06/29 13:08:50;;;;;;;5.03;2.80;;;25.50;99.90;;;;;;4976697;28;20678;-75
2021/06/29 13:11:18;;;;;;;4.07;2.97;;;25.50;99.90;;;;;;4976408;28;20199;-75
2021/06/29 13:13:58;;;;;;;3.58;2.45;;;25.40;99.90;;;;;;4976398;28;20214;-75
2021/06/29 13:16:25;;;;;;;5.25;2.80;;;25.20;99.90;;;;;;4976193;28;20239;-77
2021/06/29 13:18:52;;;;;;;6.13;3.10;;;25.00;99.90;;;;;;4996040;28;20226;-75
2021/06/29 13:21:22;;;;;;;9.23;4.00;;;24.90;99.90;;;;;;4995976;28;20206;-77
2021/06/29 16:43:10;;;;;;;10.57;4.97;;;24.00;99.90;;;;;;4968989;28;20227;-73
2021/06/29 16:45:37;;;;;;;7.40;4.90;;;23.80;99.90;;;;;;4959360;28;20208;-74
2021/06/29 16:48:05;;;;;;;10.93;5.30;;;23.70;99.90;;;;;;4976736;28;20231;-74
2021/06/29 16:50:31;;;;;;;8.98;4.43;;;23.60;99.90;;;;;;4977040;28;20218;-75
2021/06/29 16:52:58;;;;;;;10.07;5.25;;;23.60;99.90;;;;;;4976652;28;20577;-74
2021/06/29 16:55:25;;;;;;;8.18;4.95;;;23.40;99.90;;;;;;4977305;28;20234;-73
2021/06/29 16:57:52;;;;;;;11.38;4.72;;;23.40;99.90;;;;;;4976864;28;20227;-78
2021/06/29 17:00:20;;;;;;;7.45;4.70;;;23.20;99.90;;;;;;4976556;28;20211;-73
2021/06/29 17:02:47;;;;;;;8.13;4.43;;;23.10;99.90;;;;;;4976652;28;20203;-78
2021/06/29 17:05:14;;;;;;;9.57;4.90;;;23.10;99.90;;;;;;4976323;28;20214;-74
2021/06/29 17:07:41;;;;;;;9.90;4.75;;;22.90;99.90;;;;;;4976134;28;20227;-76
2021/06/29 17:10:10;;;;;;;10.02;4.45;;;22.70;99.90;;;;;;4976387;28;20203;-74
2021/06/29 17:12:37;;;;;;;10.02;4.90;;;22.70;99.90;;;;;;4976762;28;20218;-74
2021/06/29 17:15:04;;;;;;;7.00;4.15;;;22.50;99.90;;;;;;4975944;28;20213;-74
2021/06/29 17:17:32;;;;;;;9.85;4.45;;;22.50;99.90;;;;;;4975472;28;20657;-74
2021/06/29 17:19:59;;;;;;;8.88;4.50;;;22.40;99.90;;;;;;4974602;28;20207;-75
2021/06/29 17:22:26;;;;;;;8.15;4.38;;;22.30;99.90;;;;;;4975294;28;20215;-74
2021/06/29 17:24:54;;;;;;;10.43;4.50;;;22.40;99.90;;;;;;4976053;28;20207;-74
2021/06/29 17:27:22;;;;;;;8.73;4.47;;;22.20;99.90;;;;;;4975526;28;20211;-75
2021/06/29 17:29:51;;;;;;;10.77;4.40;;;22.10;99.90;;;;;;4976048;28;20234;-77
2021/06/29 17:32:18;;;;;;;8.93;3.80;;;22.00;99.90;;;;;;4975878;28;20350;-73
2021/06/29 17:34:46;;;;;;;2.55;1.77;;;21.90;99.90;;;;;;4975685;28;20279;-77
2021/06/29 17:37:13;;;;;;;1.30;1.10;;;21.80;99.90;;;;;;4975824;28;20243;-73
2021/06/29 17:39:39;;;;;;;2.53;1.08;;;21.50;99.90;;;;;;4976313;28;20218;-73
2021/06/29 17:42:06;;;;;;;2.05;0.80;;;21.30;99.90;;;;;;4975970;28;20677;-79
2021/06/29 17:44:33;;;;;;;2.45;0.63;;;21.00;99.90;;;;;;4975806;28;20662;-73
2021/06/29 17:47:00;;;;;;;1.02;0.60;;;20.70;99.90;;;;;;4975907;28;20662;-73
2021/06/29 17:49:27;;;;;;;1.85;1.10;;;20.60;99.90;;;;;;4975725;28;20230;-73
2021/06/29 17:51:55;;;;;;;0.98;0.63;;;20.60;99.90;;;;;;4976042;28;20203;-73
2021/06/29 17:54:22;;;;;;;0.60;0.50;;;20.60;99.90;;;;;;4976065;28;20203;-78
2021/06/29 17:56:49;;;;;;;1.05;0.75;;;20.60;99.90;;;;;;4975746;28;20237;-75
2021/06/29 17:59:16;;;;;;;0.90;0.50;;;20.60;99.90;;;;;;4975691;28;20223;-73
2021/06/29 18:01:43;;;;;;;1.95;0.60;;;20.50;99.90;;;;;;4975785;28;20203;-73
2021/06/29 18:04:10;;;;;;;1.60;1.00;;;20.50;99.90;;;;;;4975277;28;20207;-72
2021/06/29 18:06:37;;;;;;;2.55;1.40;;;20.40;99.90;;;;;;4975391;28;20203;-73
2021/06/29 18:09:05;;;;;;;2.83;1.27;;;20.30;99.90;;;;;;4975560;28;20313;-73
2021/06/29 18:11:32;;;;;;;3.17;1.27;;;20.30;99.90;;;;;;4975669;28;20207;-73
2021/06/29 18:14:02;;;;;;;6.27;1.53;;;20.30;99.90;;;;;;4975095;28;20684;-73
2021/06/29 18:16:29;;;;;;;3.00;1.60;;;20.30;99.90;;;;;;4974991;28;20235;-72
2021/06/29 18:18:56;;;;;;;2.30;1.40;;;20.20;99.90;;;;;;4974738;28;20231;-78
2021/06/29 18:21:26;;;;;;;2.88;1.58;;;20.20;99.90;;;;;;4974913;28;20306;-77
2021/06/29 18:23:54;;;;;;;2.53;1.30;;;20.20;99.90;;;;;;4974657;28;20269;-73
2021/06/29 18:26:22;;;;;;;2.60;1.37;;;20.10;99.90;;;;;;4974409;28;20690;-77
2021/06/29 18:28:49;;;;;;;2.93;1.70;;;20.00;99.90;;;;;;4974892;28;20234;-77
2021/06/29 18:31:16;;;;;;;3.20;1.80;;;19.90;99.90;;;;;;4974582;28;20211;-78
2021/06/29 18:33:43;;;;;;;4.97;2.43;;;19.70;99.90;;;;;;4958199;28;20204;-77
2021/06/29 18:36:10;;;;;;;4.77;3.00;;;19.60;99.90;;;;;;4975180;28;20242;-77
2021/06/29 18:38:37;;;;;;;6.63;3.03;;;19.60;99.90;;;;;;4974343;28;20726;-76
2021/06/29 18:41:04;;;;;;;3.67;2.13;;;19.60;99.90;;;;;;4973848;28;20199;-77
2021/06/29 18:43:32;;;;;;;4.20;2.10;;;19.70;99.90;;;;;;4972948;28;20222;-76
2021/06/29 18:45:59;;;;;;;3.17;1.80;;;19.70;99.90;;;;;;4974009;28;20199;-77
2021/06/29 18:48:26;;;;;;;2.67;1.50;;;19.70;99.90;;;;;;4973429;28;20227;-76
2021/06/29 18:50:53;;;;;;;2.67;1.20;;;19.60;99.90;;;;;;4972040;28;20290;-77
2021/06/29 18:53:19;;;;;;;3.07;1.80;;;19.60;99.90;;;;;;4965327;28;20211;-76
2021/06/29 18:55:49;;;;;;;2.37;1.53;;;19.60;99.90;;;;;;4967453;28;20268;-78
2021/06/29 18:58:16;;;;;;;5.20;2.23;;;19.70;99.90;;;;;;4964645;28;20254;-78
2021/06/29 19:00:45;;;;;;;2.83;1.37;;;19.70;99.90;;;;;;4966254;28;20701;-77
2021/06/29 19:03:13;;;;;;;4.13;1.88;;;19.60;99.90;;;;;;4965370;28;20575;-78
2021/06/29 19:05:40;;;;;;;4.47;2.03;;;19.70;99.90;;;;;;4963901;28;20760;-77
2021/06/29 19:08:08;;;;;;;3.50;2.20;;;19.80;99.90;;;;;;4968087;28;20222;-77
2021/06/29 19:10:35;;;;;;;4.90;2.83;;;19.80;99.90;;;;;;4968887;28;20211;-77
2021/06/29 19:13:01;;;;;;;4.30;2.13;;;19.80;99.90;;;;;;4958889;28;20658;-75
2021/06/29 19:15:28;;;;;;;3.63;1.90;;;19.80;99.90;;;;;;4960902;28;20212;-77
2021/06/29 19:18:00;;;;;;;5.07;2.20;;;19.80;99.90;;;;;;4961462;28;20314;-77
2021/06/29 19:20:26;;;;;;;9.47;3.83;;;19.80;99.90;;;;;;4963717;28;20558;-78
2021/06/29 19:22:54;;;;;;;13.70;5.90;;;19.80;99.90;;;;;;4965672;28;20566;-77
2021/06/29 19:25:22;;;;;;;9.73;4.70;;;19.80;99.90;;;;;;4957999;28;20211;-77
2021/06/29 19:27:49;;;;;;;11.27;5.43;;;19.80;99.90;;;;;;4968730;28;20231;-78
2021/06/29 19:30:17;;;;;;;10.73;5.37;;;19.80;99.90;;;;;;4963797;28;20214;-79
2021/06/29 19:32:46;;;;;;;9.37;5.17;;;19.80;99.90;;;;;;4965165;28;20204;-78
2021/06/29 19:35:15;;;;;;;10.13;5.07;;;19.80;99.90;;;;;;4966287;28;20207;-78
2021/06/29 19:37:43;;;;;;;17.83;5.73;;;19.80;99.90;;;;;;4965604;28;20297;-76
2021/06/29 19:40:12;;;;;;;14.43;5.50;;;19.90;99.90;;;;;;4967953;28;20212;-78
2021/06/29 19:42:39;;;;;;;10.17;4.87;;;19.90;99.90;;;;;;4967752;28;20212;-77
2021/06/29 19:45:07;;;;;;;13.60;5.50;;;19.80;99.90;;;;;;4968811;28;20663;-78
2021/06/29 19:47:34;;;;;;;11.70;5.17;;;19.80;99.90;;;;;;4968845;28;20235;-78
2021/06/29 19:50:01;;;;;;;17.87;5.33;;;19.80;99.90;;;;;;4966971;28;20674;-78
2021/06/29 19:52:29;;;;;;;10.20;5.00;;;19.70;99.90;;;;;;4961689;28;20650;-79
2021/06/29 19:54:56;;;;;;;10.27;4.53;;;19.60;99.90;;;;;;4967432;28;20673;-76
2021/06/29 19:57:23;;;;;;;9.50;4.53;;;19.70;99.90;;;;;;4970864;28;20239;-77
2021/06/29 19:59:50;;;;;;;8.67;5.00;;;19.60;99.90;;;;;;4965972;28;20208;-77
2021/06/29 20:02:17;;;;;;;7.20;4.23;;;19.60;99.90;;;;;;4962084;28;20215;-74
2021/06/29 20:04:43;;;;;;;7.77;4.10;;;19.50;99.90;;;;;;4965980;28;20218;-77
2021/06/29 20:07:10;;;;;;;8.40;3.80;;;19.40;99.90;;;;;;4963812;28;20208;-73
2021/06/29 20:09:38;;;;;;;7.90;4.10;;;19.40;99.90;;;;;;4973213;28;20219;-77
2021/06/29 20:12:05;;;;;;;11.17;4.37;;;19.40;99.90;;;;;;4966037;28;20211;-78
2021/06/29 20:14:32;;;;;;;9.87;4.37;;;19.40;99.90;;;;;;4965311;28;20207;-78
2021/06/29 20:16:59;;;;;;;7.23;4.03;;;19.30;99.90;;;;;;4966576;28;20242;-74
2021/06/29 20:19:25;;;;;;;9.27;4.03;;;19.20;99.90;;;;;;4968561;28;20224;-77
2021/06/29 20:21:53;;;;;;;6.57;3.47;;;19.20;99.90;;;;;;4967222;28;20221;-74
2021/06/29 20:24:19;;;;;;;8.47;3.93;;;19.20;99.90;;;;;;4966293;28;20222;-73
2021/06/29 20:26:47;;;;;;;8.30;4.03;;;19.30;99.90;;;;;;4967548;28;20200;-73
2021/06/29 20:29:14;;;;;;;6.70;3.43;;;19.40;99.90;;;;;;4963775;28;20224;-73
2021/06/29 20:31:41;;;;;;;5.23;3.00;;;19.40;99.90;;;;;;4962010;28;20200;-76
2021/06/29 20:34:08;;;;;;;7.07;3.73;;;19.40;99.90;;;;;;4961146;28;20213;-77
2021/06/29 20:36:35;;;;;;;9.23;3.53;;;19.40;99.90;;;;;;4968499;28;20234;-74
2021/06/29 20:39:02;;;;;;;7.20;3.63;;;19.40;99.90;;;;;;4964819;28;20232;-78
2021/06/29 20:41:29;;;;;;;9.90;4.00;;;19.40;99.90;;;;;;4963948;28;20207;-72
2021/06/29 20:43:57;;;;;;;5.87;3.60;;;19.40;99.90;;;;;;4964662;28;20207;-78
2021/06/29 20:46:24;;;;;;;8.00;4.33;;;19.30;99.90;;;;;;4966716;28;20218;-74
2021/06/29 20:48:50;;;;;;;9.97;4.20;;;19.10;99.90;;;;;;4969333;28;20237;-72
2021/06/29 20:51:17;;;;;;;8.87;4.47;;;19.20;99.90;;;;;;4966822;28;20230;-77
2021/06/29 20:53:44;;;;;;;7.70;4.40;;;19.20;99.90;;;;;;4966948;28;20207;-74
2021/06/29 20:56:11;;;;;;;8.00;4.27;;;19.20;99.90;;;;;;4961984;28;20200;-74
2021/06/29 20:58:38;;;;;;;7.87;4.23;;;19.20;99.90;;;;;;4970353;28;20223;-73
2021/06/29 21:01:06;;;;;;;9.77;5.10;;;19.10;99.90;;;;;;4970615;28;20208;-74
2021/06/29 21:03:32;;;;;;;7.33;4.53;;;19.10;99.90;;;;;;4964477;28;20207;-74
2021/06/29 21:05:59;;;;;;;8.80;4.83;;;19.10;99.90;;;;;;4967000;28;20606;-73
2021/06/29 21:08:26;;;;;;;10.30;5.30;;;19.00;99.90;;;;;;4968869;28;20223;-73
2021/06/29 21:10:53;;;;;;;8.30;4.23;;;19.00;99.90;;;;;;4970254;28;20208;-73
2021/06/29 21:13:20;;;;;;;10.37;4.90;;;18.90;99.90;;;;;;4968131;28;20204;-73
2021/06/29 21:15:47;;;;;;;7.73;4.70;;;19.00;99.90;;;;;;4967769;28;20208;-73
2021/06/29 21:18:15;;;;;;;10.33;4.87;;;19.00;99.90;;;;;;4963138;28;20247;-78
2021/06/29 21:20:42;;;;;;;8.07;4.37;;;19.00;99.90;;;;;;4963739;28;20203;-77
2021/06/29 21:23:09;;;;;;;8.70;4.90;;;18.90;99.90;;;;;;4968434;28;20211;-72
2021/06/29 21:25:36;;;;;;;9.67;5.10;;;18.80;99.90;;;;;;4961966;28;20208;-73
2021/06/29 21:28:03;;;;;;;10.10;5.00;;;18.80;99.90;;;;;;4966740;28;20228;-73
2021/06/29 21:30:30;;;;;;;11.97;4.70;;;18.70;99.90;;;;;;4961439;28;20246;-73
2021/06/29 21:32:56;;;;;;;7.70;4.60;;;18.60;99.90;;;;;;4964415;28;20200;-73
2021/06/29 21:35:24;;;;;;;8.50;4.40;;;18.40;99.90;;;;;;4961581;28;20212;-77
2021/06/29 21:37:51;;;;;;;8.70;4.53;;;18.30;99.90;;;;;;4969684;28;20231;-76
2021/06/29 21:40:20;;;;;;;8.53;4.83;;;18.30;99.90;;;;;;4972013;28;20232;-71
2021/06/29 21:42:48;;;;;;;7.83;4.20;;;18.30;99.90;;;;;;4969493;28;20217;-71
